Cosco Nagoya — 3ESJ8 — position and weather

sailwx.info

Track history (hours):
 
Tides and Currents Weather Stations Pressure Air Temp Water Temp Dewpoint Dewpoint Depression Visibility Wind Speed Wind Dir Waves Ship Positions

Cosco Nagoya

Last reported at 2015-May-17 23:29 UTC. Time now 2015-May-26 07:34 UTC.
Position N 38°58' W 071°01'.
Warning: this ship's position is 8 days out of date.

Length 260 m; draft 11.9 m.

Type: Cargo ship. MMSI: 370320000.

Date/timePositionNaut miles runAvg speedWind from/ knotsBaromVisibWave heightAir tempDewpointWater temp
2015-May-17 23:29N 38°58' W 071°01'1918.5
2015-May-17 22:29N 39°09' W 070°43'1717.9
2015-May-17 21:33N 39°20' W 070°26'2018.3
2015-May-17 20:26N 39°33' W 070°05'3618.6
2015-May-17 18:28N 39°57' W 069°30'1718.7
2015-May-17 17:33N 40°10' W 069°15'2118.3
2015-May-17 16:26N 40°28' W 069°02'1718.3
2015-May-17 15:29N 40°45' W 069°02'3116.2
2015-May-17 13:33N 41°14' W 069°19'10 9.6
2015-May-17 12:30N 41°23' W 069°25'31 9.4
2015-May-17 09:09N 41°51' W 069°44'7 9.9
2015-May-17 08:27N 41°57' W 069°49'4716.2
2015-May-17 05:31N 42°20' W 070°44'1211.2
2015-May-17 04:28N 42°20' W 071°00'1 0.3
2015-May-17 02:14N 42°21' W 071°01'0 0.0
2015-May-17 00:27N 42°21' W 071°01'0 0.0
2015-May-16 23:33N 42°21' W 071°01'0 0.0
2015-May-16 22:33N 42°21' W 071°01'0 0.0
2015-May-16 21:33N 42°21' W 071°01'0 0.0
2015-May-16 15:30N 42°21' W 071°01'4 3.5
2015-May-16 14:30N 42°21' W 070°56'1010.3
2015-May-16 13:33N 42°23' W 070°44'9 9.2
2015-May-16 12:33N 42°21' W 070°31'1313.3
2015-May-16 11:33N 42°21' W 070°13'1212.3
2015-May-16 10:33N 42°16' W 069°58'1413.9
2015-May-16 09:33N 42°04' W 069°49'1111.2
2015-May-16 08:33N 41°54' W 069°42'10 9.5
2015-May-16 07:34N 41°46' W 069°36'10 9.8
2015-May-16 06:33N 41°37' W 069°31'10 9.9
2015-May-16 05:34N 41°28' W 069°25'9 9.2
2015-May-16 04:33N 41°19' W 069°20'10 9.6
2015-May-16 03:33N 41°11' W 069°14'9 9.5
2015-May-16 02:33N 41°03' W 069°08'1211.5
2015-May-16 01:33N 40°52' W 069°01'1615.8
2015-May-16 00:33N 40°37' W 068°60'1716.9
2015-May-15 23:33N 40°27' W 069°18'1817.7
2015-May-15 22:33N 40°26' W 069°41'1919.0
2015-May-15 21:33N 40°26' W 070°06'1919.3
2015-May-15 20:33N 40°25' W 070°31'1919.3
2015-May-15 19:33N 40°24' W 070°57'1919.0
2015-May-15 18:33N 40°24' W 071°21'1919.1
2015-May-15 17:33N 40°24' W 071°47'1919.0
2015-May-15 16:33N 40°23' W 072°11'1918.6
2015-May-15 15:33N 40°22' W 072°36'1918.7
2015-May-15 14:33N 40°22' W 073°00'1918.7
2015-May-15 13:33N 40°24' W 073°25'1817.7
2015-May-15 12:33N 40°27' W 073°48'1313.5
2015-May-15 11:33N 40°35' W 074°02'7 6.8
2015-May-15 10:33N 40°40' W 074°08'1 0.7
2015-May-15 09:32N 40°41' W 074°09'0 0.0
2015-May-15 08:32N 40°41' W 074°09'0 0.0
2015-May-15 07:32N 40°41' W 074°09'0 0.0
2015-May-15 06:32N 40°41' W 074°08'0 0.0
2015-May-15 05:32N 40°41' W 074°08'0 0.0
2015-May-15 04:32N 40°41' W 074°09'0 0.0
2015-May-15 03:32N 40°41' W 074°09'0 0.0
2015-May-15 02:32N 40°41' W 074°09'0 0.0
2015-May-15 01:32N 40°41' W 074°09'0 0.0
2015-May-15 00:32N 40°41' W 074°09'0 0.0
2015-May-14 23:32N 40°41' W 074°09'0 0.0
2015-May-14 22:32N 40°41' W 074°09'0 0.0
2015-May-14 21:32N 40°41' W 074°09'0 0.0
2015-May-14 20:32N 40°41' W 074°09'0 0.0
2015-May-14 19:29N 40°41' W 074°09'0 0.0
2015-May-14 18:32N 40°41' W 074°09'0 0.0
2015-May-14 17:32N 40°41' W 074°09'0 0.0
2015-May-14 16:32N 40°41' W 074°09'0 0.0
2015-May-14 15:32N 40°41' W 074°08'0 0.0
2015-May-14 14:32N 40°41' W 074°09'0 0.0
2015-May-14 13:32N 40°41' W 074°08'0 0.0
2015-May-14 12:32N 40°41' W 074°09'0 0.0
2015-May-14 11:26N 40°41' W 074°09'0 0.0
2015-May-14 10:32N 40°41' W 074°09'0 0.3
2015-May-14 09:34N 40°40' W 074°08'4 4.2
2015-May-14 08:34N 40°38' W 074°03'10 9.7
2015-May-14 07:33N 40°30' W 073°57'1110.2
2015-May-14 06:31N 40°23' W 073°46'1010.0
2015-May-14 05:32N 40°13' W 073°45'1614.0
2015-May-14 04:22N 39°57' W 073°42'1214.1
2015-May-14 03:33N 39°45' W 073°40'1414.1
2015-May-14 02:32N 39°31' W 073°43'1514.0
2015-May-14 01:28N 39°17' W 073°46'1314.0
2015-May-14 00:31N 39°03' W 073°49'1314.0
2015-May-13 23:33N 38°50' W 073°53'21514.8
2015-May-13 09:05N 35°22' W 074°60'7115.6
2015-May-13 04:33N 34°26' W 075°52'1716.7
2015-May-13 03:33N 34°14' W 076°07'1716.9
2015-May-13 02:33N 34°03' W 076°21'1616.3
2015-May-13 01:33N 33°51' W 076°35'1615.6
2015-May-13 00:33N 33°41' W 076°49'1615.6
2015-May-12 23:33N 33°31' W 077°04'147 4.7
2015-May-11 16:34N 32°44' W 079°50'1514.6
2015-May-11 15:33N 32°37' W 079°34'9 9.4
2015-May-11 14:33N 32°38' W 079°23'  
Track history (hours):
 
Tides and Currents Weather Stations Pressure Air Temp Water Temp Dewpoint Dewpoint Depression Visibility Wind Speed Wind Dir Waves Ship Positions

Cosco Nagoya

Last reported at 2015-May-17 23:29 UTC. Time now 2015-May-26 07:34 UTC.
Position N 38°58' W 071°01'.
Warning: this ship's position is 8 days out of date.

Length 260 m; draft 11.9 m.

Type: Cargo ship. MMSI: 370320000.

Date/timePositionNaut miles runAvg speedWind from/ knotsBaromVisibWave heightAir tempDewpointWater temp
2015-May-17 23:29N 38°58' W 071°01'1918.5
2015-May-17 22:29N 39°09' W 070°43'1717.9
2015-May-17 21:33N 39°20' W 070°26'2018.3
2015-May-17 20:26N 39°33' W 070°05'3618.6
2015-May-17 18:28N 39°57' W 069°30'1718.7
2015-May-17 17:33N 40°10' W 069°15'2118.3
2015-May-17 16:26N 40°28' W 069°02'1718.3
2015-May-17 15:29N 40°45' W 069°02'3116.2
2015-May-17 13:33N 41°14' W 069°19'10 9.6
2015-May-17 12:30N 41°23' W 069°25'31 9.4
2015-May-17 09:09N 41°51' W 069°44'7 9.9
2015-May-17 08:27N 41°57' W 069°49'4716.2
2015-May-17 05:31N 42°20' W 070°44'1211.2
2015-May-17 04:28N 42°20' W 071°00'1 0.3
2015-May-17 02:14N 42°21' W 071°01'0 0.0
2015-May-17 00:27N 42°21' W 071°01'0 0.0
2015-May-16 23:33N 42°21' W 071°01'0 0.0
2015-May-16 22:33N 42°21' W 071°01'0 0.0
2015-May-16 21:33N 42°21' W 071°01'0 0.0
2015-May-16 15:30N 42°21' W 071°01'4 3.5
2015-May-16 14:30N 42°21' W 070°56'1010.3
2015-May-16 13:33N 42°23' W 070°44'9 9.2
2015-May-16 12:33N 42°21' W 070°31'1313.3
2015-May-16 11:33N 42°21' W 070°13'1212.3
2015-May-16 10:33N 42°16' W 069°58'1413.9
2015-May-16 09:33N 42°04' W 069°49'1111.2
2015-May-16 08:33N 41°54' W 069°42'10 9.5
2015-May-16 07:34N 41°46' W 069°36'10 9.8
2015-May-16 06:33N 41°37' W 069°31'10 9.9
2015-May-16 05:34N 41°28' W 069°25'9 9.2
2015-May-16 04:33N 41°19' W 069°20'10 9.6
2015-May-16 03:33N 41°11' W 069°14'9 9.5
2015-May-16 02:33N 41°03' W 069°08'1211.5
2015-May-16 01:33N 40°52' W 069°01'1615.8
2015-May-16 00:33N 40°37' W 068°60'1716.9
2015-May-15 23:33N 40°27' W 069°18'1817.7
2015-May-15 22:33N 40°26' W 069°41'1919.0
2015-May-15 21:33N 40°26' W 070°06'1919.3
2015-May-15 20:33N 40°25' W 070°31'1919.3
2015-May-15 19:33N 40°24' W 070°57'1919.0
2015-May-15 18:33N 40°24' W 071°21'1919.1
2015-May-15 17:33N 40°24' W 071°47'1919.0
2015-May-15 16:33N 40°23' W 072°11'1918.6
2015-May-15 15:33N 40°22' W 072°36'1918.7
2015-May-15 14:33N 40°22' W 073°00'1918.7
2015-May-15 13:33N 40°24' W 073°25'1817.7
2015-May-15 12:33N 40°27' W 073°48'1313.5
2015-May-15 11:33N 40°35' W 074°02'7 6.8
2015-May-15 10:33N 40°40' W 074°08'1 0.7
2015-May-15 09:32N 40°41' W 074°09'0 0.0
2015-May-15 08:32N 40°41' W 074°09'0 0.0
2015-May-15 07:32N 40°41' W 074°09'0 0.0
2015-May-15 06:32N 40°41' W 074°08'0 0.0
2015-May-15 05:32N 40°41' W 074°08'0 0.0
2015-May-15 04:32N 40°41' W 074°09'0 0.0
2015-May-15 03:32N 40°41' W 074°09'0 0.0
2015-May-15 02:32N 40°41' W 074°09'0 0.0
2015-May-15 01:32N 40°41' W 074°09'0 0.0
2015-May-15 00:32N 40°41' W 074°09'0 0.0
2015-May-14 23:32N 40°41' W 074°09'0 0.0
2015-May-14 22:32N 40°41' W 074°09'0 0.0
2015-May-14 21:32N 40°41' W 074°09'0 0.0
2015-May-14 20:32N 40°41' W 074°09'0 0.0
2015-May-14 19:29N 40°41' W 074°09'0 0.0
2015-May-14 18:32N 40°41' W 074°09'0 0.0
2015-May-14 17:32N 40°41' W 074°09'0 0.0
2015-May-14 16:32N 40°41' W 074°09'0 0.0
2015-May-14 15:32N 40°41' W 074°08'0 0.0
2015-May-14 14:32N 40°41' W 074°09'0 0.0
2015-May-14 13:32N 40°41' W 074°08'0 0.0
2015-May-14 12:32N 40°41' W 074°09'0 0.0
2015-May-14 11:26N 40°41' W 074°09'0 0.0
2015-May-14 10:32N 40°41' W 074°09'0 0.3
2015-May-14 09:34N 40°40' W 074°08'4 4.2
2015-May-14 08:34N 40°38' W 074°03'10 9.7
2015-May-14 07:33N 40°30' W 073°57'1110.2
2015-May-14 06:31N 40°23' W 073°46'1010.0
2015-May-14 05:32N 40°13' W 073°45'1614.0
2015-May-14 04:22N 39°57' W 073°42'1214.1
2015-May-14 03:33N 39°45' W 073°40'1414.1
2015-May-14 02:32N 39°31' W 073°43'1514.0
2015-May-14 01:28N 39°17' W 073°46'1314.0
2015-May-14 00:31N 39°03' W 073°49'1314.0
2015-May-13 23:33N 38°50' W 073°53'21514.8
2015-May-13 09:05N 35°22' W 074°60'7115.6
2015-May-13 04:33N 34°26' W 075°52'1716.7
2015-May-13 03:33N 34°14' W 076°07'1716.9
2015-May-13 02:33N 34°03' W 076°21'1616.3
2015-May-13 01:33N 33°51' W 076°35'1615.6
2015-May-13 00:33N 33°41' W 076°49'1615.6
2015-May-12 23:33N 33°31' W 077°04'147 4.7
2015-May-11 16:34N 32°44' W 079°50'1514.6
2015-May-11 15:33N 32°37' W 079°34'9 9.4
2015-May-11 14:33N 32°38' W 079°23'  

Dump ship's entire track history